Time;durP1;ratioP1;P1;durP2;ratioP2;P2;SDS_P1;SDS_P2;PMS_P1;PMS_P2;Temp;Humidity;BMP_temperature;BMP_pressure;BME280_temperature;BME280_humidity;BME280_pressure;Samples;Min_cycle;Max_cycle;Signal;HPM_P1;HPM_P2
2021/08/09 00:02:07;;;;;;;11.13;2.65;;;;;;;;;;4999452;28;20159;-68
2021/08/09 00:04:35;;;;;;;15.20;4.20;;;;;;;;;;4999929;28;20022;-68
2021/08/09 00:07:01;;;;;;;14.90;2.88;;;;;;;;;;4997609;28;20089;-68
2021/08/09 00:09:27;;;;;;;15.95;2.97;;;;;;;;;;4999302;28;20030;-68
2021/08/09 00:11:53;;;;;;;16.23;3.50;;;;;;;;;;4997908;28;20110;-68
2021/08/09 00:14:19;;;;;;;12.70;3.25;;;;;;;;;;4993862;28;20070;-68
2021/08/09 00:16:45;;;;;;;16.42;3.85;;;;;;;;;;4993618;28;20035;-68
2021/08/09 00:19:11;;;;;;;14.13;3.35;;;;;;;;;;4997633;28;20041;-68
2021/08/09 00:21:37;;;;;;;18.27;3.80;;;;;;;;;;4990579;28;20087;-68
2021/08/09 00:24:03;;;;;;;16.25;3.85;;;;;;;;;;4993566;28;20031;-68
2021/08/09 00:26:30;;;;;;;15.35;4.15;;;;;;;;;;4993760;28;20014;-68
2021/08/09 00:28:56;;;;;;;18.98;3.35;;;;;;;;;;4988371;28;20054;-68
2021/08/09 00:31:22;;;;;;;13.63;3.30;;;;;;;;;;4985347;28;20042;-68
2021/08/09 00:33:48;;;;;;;15.95;3.08;;;;;;;;;;4988144;28;20030;-68
2021/08/09 00:36:14;;;;;;;18.23;3.38;;;;;;;;;;4997340;28;20023;-68
2021/08/09 00:38:40;;;;;;;16.85;4.05;;;;;;;;;;5003836;28;20029;-68
2021/08/09 00:41:06;;;;;;;16.45;3.75;;;;;;;;;;4992657;28;20023;-68
2021/08/09 00:43:32;;;;;;;16.88;3.33;;;;;;;;;;4995744;28;20026;-68
2021/08/09 00:46:03;;;;;;;14.32;3.08;;;;;;;;;;4995454;28;20070;-68
2021/08/09 00:48:28;;;;;;;19.77;4.38;;;;;;;;;;4989094;28;20026;-68
2021/08/09 00:50:54;;;;;;;17.70;3.63;;;;;;;;;;4982534;28;20503;-68
2021/08/09 00:53:21;;;;;;;15.55;3.60;;;;;;;;;;4979559;28;20483;-68
2021/08/09 00:55:51;;;;;;;24.85;3.30;;;;;;;;;;4973425;28;20085;-68
2021/08/09 00:58:17;;;;;;;;;;;;;;;;;;4971792;28;20435;-68
2021/08/09 01:00:43;;;;;;;22.35;3.20;;;;;;;;;;4971604;28;19910;-68
2021/08/09 01:03:08;;;;;;;22.23;3.22;;;;;;;;;;4970319;28;20105;-68
2021/08/09 01:05:34;;;;;;;21.58;4.45;;;;;;;;;;4970896;28;20552;-68
2021/08/09 01:08:04;;;;;;;10.80;2.60;;;;;;;;;;4975583;28;20019;-68
2021/08/09 01:10:47;;;;;;;18.13;4.03;;;;;;;;;;4978251;28;20033;-68
2021/08/09 01:13:38;;;;;;;18.85;3.92;;;;;;;;;;4971742;28;20512;-68
2021/08/09 01:16:08;;;;;;;13.52;3.42;;;;;;;;;;4975398;28;20379;-68
2021/08/09 01:18:34;;;;;;;;;;;;;;;;;;4979964;28;20023;-68
2021/08/09 01:21:00;;;;;;;22.13;3.83;;;;;;;;;;4988882;28;20373;-68
2021/08/09 01:23:40;;;;;;;13.52;3.72;;;;;;;;;;4970701;28;20037;-68
2021/08/09 01:26:34;;;;;;;15.20;3.50;;;;;;;;;;4970111;28;20031;-68
2021/08/09 01:29:01;;;;;;;17.02;3.20;;;;;;;;;;4971012;28;20123;-68
2021/08/09 01:31:36;;;;;;;24.05;4.68;;;;;;;;;;4970783;28;20039;-68
2021/08/09 01:34:03;;;;;;;11.02;3.20;;;;;;;;;;4968676;28;20386;-68
2021/08/09 01:36:32;;;;;;;11.90;3.58;;;;;;;;;;4982102;28;20034;-68
2021/08/09 01:38:58;;;;;;;11.65;3.00;;;;;;;;;;4969535;28;20420;-68
2021/08/09 01:41:25;;;;;;;18.08;3.97;;;;;;;;;;4968973;28;20037;-68
2021/08/09 01:43:51;;;;;;;18.30;3.95;;;;;;;;;;4971176;28;20039;-68
2021/08/09 01:46:17;;;;;;;19.92;3.90;;;;;;;;;;4972959;28;20041;-68
2021/08/09 01:48:46;;;;;;;14.88;3.63;;;;;;;;;;4970433;28;20026;-68
2021/08/09 01:51:12;;;;;;;15.75;3.83;;;;;;;;;;4969970;28;20488;-68
2021/08/09 01:53:38;;;;;;;17.30;3.00;;;;;;;;;;4969397;28;20094;-68
2021/08/09 01:56:04;;;;;;;19.20;3.08;;;;;;;;;;4969968;28;20031;-68
2021/08/09 01:58:30;;;;;;;21.75;3.53;;;;;;;;;;4970421;28;20718;-68
2021/08/09 02:00:56;;;;;;;14.68;3.25;;;;;;;;;;4981806;28;20022;-68
2021/08/09 02:03:22;;;;;;;15.23;3.25;;;;;;;;;;4981486;28;20101;-68
2021/08/09 02:05:49;;;;;;;15.32;3.53;;;;;;;;;;4971667;28;20038;-68
2021/08/09 02:08:15;;;;;;;12.13;2.95;;;;;;;;;;4970594;28;20041;-68
2021/08/09 02:10:41;;;;;;;17.80;3.67;;;;;;;;;;4983216;28;20023;-68
2021/08/09 02:13:12;;;;;;;15.45;3.45;;;;;;;;;;4993586;28;20015;-68
2021/08/09 02:15:40;;;;;;;15.27;2.90;;;;;;;;;;4993402;28;20037;-68
2021/08/09 02:18:09;;;;;;;18.83;4.43;;;;;;;;;;4980459;28;20034;-68
2021/08/09 02:20:38;;;;;;;18.00;3.63;;;;;;;;;;4972429;28;20061;-68
2021/08/09 02:23:07;;;;;;;18.35;3.20;;;;;;;;;;4972858;28;20026;-68
2021/08/09 02:25:34;;;;;;;18.50;4.55;;;;;;;;;;4960001;28;20027;-68
2021/08/09 02:28:06;;;;;;;16.95;3.30;;;;;;;;;;4970834;28;20478;-68
2021/08/09 02:30:32;;;;;;;16.38;3.33;;;;;;;;;;4974714;28;20438;-68
2021/08/09 02:32:59;;;;;;;17.92;4.05;;;;;;;;;;4962788;28;20033;-68
2021/08/09 02:35:26;;;;;;;18.60;2.85;;;;;;;;;;4969464;28;20027;-68
2021/08/09 02:37:53;;;;;;;17.05;2.83;;;;;;;;;;4977329;28;20027;-68
2021/08/09 02:40:20;;;;;;;14.60;3.33;;;;;;;;;;4967451;28;20027;-68
2021/08/09 02:42:46;;;;;;;16.35;3.92;;;;;;;;;;4969519;28;20396;-68
2021/08/09 02:45:12;;;;;;;16.45;4.13;;;;;;;;;;4970482;28;20045;-68
2021/08/09 02:47:40;;;;;;;25.00;5.60;;;;;;;;;;4969855;28;20389;-68
2021/08/09 02:50:07;;;;;;;15.27;3.30;;;;;;;;;;4969307;28;20035;-68
2021/08/09 02:52:33;;;;;;;14.20;3.10;;;;;;;;;;4974812;28;20093;-68
2021/08/09 02:55:00;;;;;;;15.48;4.05;;;;;;;;;;4972116;28;20038;-68
2021/08/09 02:57:28;;;;;;;14.98;3.20;;;;;;;;;;4969233;28;20091;-68
2021/08/09 02:59:55;;;;;;;12.10;2.78;;;;;;;;;;4970878;28;20550;-68
2021/08/09 03:02:22;;;;;;;18.23;3.95;;;;;;;;;;4971680;28;20057;-68
2021/08/09 03:04:48;;;;;;;10.05;3.13;;;;;;;;;;4969025;28;20031;-68
2021/08/09 03:07:15;;;;;;;16.63;3.78;;;;;;;;;;4970386;28;20035;-68
2021/08/09 03:09:41;;;;;;;17.17;3.10;;;;;;;;;;4984991;28;20034;-68
2021/08/09 03:12:07;;;;;;;14.63;3.05;;;;;;;;;;4976145;28;20046;-68
2021/08/09 03:14:33;;;;;;;8.85;2.55;;;;;;;;;;4965512;28;20508;-68
2021/08/09 03:17:03;;;;;;;14.52;3.10;;;;;;;;;;4969309;28;20073;-68
2021/08/09 03:19:29;;;;;;;12.30;3.28;;;;;;;;;;4980102;28;20038;-68
2021/08/09 03:21:56;;;;;;;19.00;3.45;;;;;;;;;;4969164;28;20087;-68
2021/08/09 03:24:23;;;;;;;14.18;3.17;;;;;;;;;;4969345;28;20058;-68
2021/08/09 03:26:50;;;;;;;12.50;3.15;;;;;;;;;;4985130;28;20030;-68
2021/08/09 03:29:16;;;;;;;30.83;4.45;;;;;;;;;;4975866;28;20027;-68
2021/08/09 03:31:43;;;;;;;19.35;3.50;;;;;;;;;;4970155;28;20396;-68
2021/08/09 03:34:09;;;;;;;12.35;2.97;;;;;;;;;;4978763;28;20082;-68
2021/08/09 03:36:35;;;;;;;15.60;3.38;;;;;;;;;;4975962;28;20404;-68
2021/08/09 03:39:01;;;;;;;13.43;3.20;;;;;;;;;;4973330;28;20113;-68
2021/08/09 03:41:27;;;;;;;18.02;3.28;;;;;;;;;;4963316;28;20031;-68
2021/08/09 03:43:53;;;;;;;17.15;3.72;;;;;;;;;;4969509;28;20023;-68
2021/08/09 03:46:18;;;;;;;17.23;3.17;;;;;;;;;;4984370;28;20042;-68
2021/08/09 03:48:44;;;;;;;24.40;4.80;;;;;;;;;;5003785;28;20023;-68
2021/08/09 03:51:10;;;;;;;17.33;4.13;;;;;;;;;;4991209;28;20030;-68
2021/08/09 03:53:36;;;;;;;27.25;3.65;;;;;;;;;;4969458;28;20043;-68
2021/08/09 03:56:04;;;;;;;16.73;3.35;;;;;;;;;;4977579;28;20027;-68
2021/08/09 03:58:31;;;;;;;18.15;3.72;;;;;;;;;;4984827;28;20081;-69
2021/08/09 04:00:57;;;;;;;17.65;3.88;;;;;;;;;;4990405;28;20034;-68
2021/08/09 04:03:23;;;;;;;14.95;3.55;;;;;;;;;;4976171;28;20093;-68
2021/08/09 04:05:49;;;;;;;10.63;2.70;;;;;;;;;;4972772;28;20041;-67
2021/08/09 04:08:15;;;;;;;23.05;3.40;;;;;;;;;;4968761;28;20031;-67
2021/08/09 04:10:41;;;;;;;23.77;4.80;;;;;;;;;;4971110;28;20420;-68
2021/08/09 04:13:06;;;;;;;12.88;3.20;;;;;;;;;;4974567;28;20038;-67
2021/08/09 04:15:32;;;;;;;18.10;3.97;;;;;;;;;;4977408;28;20169;-67
2021/08/09 04:17:58;;;;;;;16.27;4.90;;;;;;;;;;4972547;28;20026;-67
2021/08/09 04:20:24;;;;;;;15.35;4.05;;;;;;;;;;4976826;28;20603;-67
2021/08/09 04:22:50;;;;;;;19.85;3.42;;;;;;;;;;4976069;28;20128;-67
2021/08/09 04:25:16;;;;;;;19.90;3.97;;;;;;;;;;4972001;28;20074;-67
2021/08/09 04:27:42;;;;;;;21.13;3.85;;;;;;;;;;4971868;28;20063;-67
2021/08/09 04:30:08;;;;;;;19.80;4.35;;;;;;;;;;4979464;28;20041;-67
2021/08/09 04:32:39;;;;;;;17.20;4.22;;;;;;;;;;4970069;28;20400;-67
2021/08/09 04:35:07;;;;;;;19.40;4.95;;;;;;;;;;4968803;28;20039;-67
2021/08/09 04:37:32;;;;;;;16.00;4.10;;;;;;;;;;4969178;28;20030;-67
2021/08/09 04:39:58;;;;;;;20.67;3.85;;;;;;;;;;4987968;28;20030;-67
2021/08/09 04:42:24;;;;;;;18.80;4.70;;;;;;;;;;5001998;28;20046;-68
2021/08/09 04:44:50;;;;;;;13.00;3.05;;;;;;;;;;5001051;28;20114;-67
2021/08/09 04:47:16;;;;;;;16.08;2.60;;;;;;;;;;4987646;28;20073;-67
2021/08/09 04:49:42;;;;;;;10.00;2.58;;;;;;;;;;4973479;28;20030;-67
2021/08/09 04:52:08;;;;;;;17.08;2.88;;;;;;;;;;4983735;28;20281;-67
2021/08/09 04:54:35;;;;;;;15.40;3.50;;;;;;;;;;4971260;28;20104;-67
2021/08/09 04:57:01;;;;;;;17.13;3.65;;;;;;;;;;4970191;28;20121;-67
2021/08/09 04:59:26;;;;;;;15.15;3.35;;;;;;;;;;4982377;28;20539;-67
2021/08/09 05:01:52;;;;;;;22.48;4.18;;;;;;;;;;4979993;28;20785;-67
2021/08/09 05:04:18;;;;;;;12.23;3.13;;;;;;;;;;4972910;28;20511;-67
2021/08/09 05:06:44;;;;;;;13.80;3.28;;;;;;;;;;4974433;28;20027;-67
2021/08/09 05:09:11;;;;;;;19.27;4.78;;;;;;;;;;4976934;28;20034;-67
2021/08/09 05:11:37;;;;;;;13.82;3.03;;;;;;;;;;4979395;28;20517;-68
2021/08/09 05:14:03;;;;;;;13.00;2.88;;;;;;;;;;4971375;28;20578;-68
2021/08/09 05:16:32;;;;;;;15.13;3.20;;;;;;;;;;4975913;28;20057;-68
2021/08/09 05:19:02;;;;;;;16.15;3.17;;;;;;;;;;4971094;28;20026;-68
2021/08/09 05:21:27;;;;;;;17.25;2.97;;;;;;;;;;4978333;28;20164;-68
2021/08/09 05:23:53;;;;;;;15.23;3.17;;;;;;;;;;4970661;28;20114;-68
2021/08/09 05:26:19;;;;;;;15.85;2.90;;;;;;;;;;4970358;28;20030;-68
2021/08/09 05:28:45;;;;;;;16.70;2.58;;;;;;;;;;4969107;28;20035;-68
2021/08/09 05:31:12;;;;;;;10.43;2.60;;;;;;;;;;4970828;28;20395;-68
2021/08/09 05:33:38;;;;;;;12.40;2.17;;;;;;;;;;4970079;28;20039;-68
2021/08/09 05:36:05;;;;;;;22.23;3.58;;;;;;;;;;4975911;28;20026;-68
2021/08/09 05:38:31;;;;;;;15.23;2.58;;;;;;;;;;4975801;28;20137;-68
2021/08/09 05:40:57;;;;;;;19.88;3.95;;;;;;;;;;4976808;28;20383;-68
2021/08/09 05:43:22;;;;;;;7.68;1.42;;;;;;;;;;4970141;28;20034;-68
2021/08/09 05:45:48;;;;;;;9.93;2.03;;;;;;;;;;4968902;28;20093;-68
2021/08/09 05:48:14;;;;;;;8.18;1.92;;;;;;;;;;4970244;28;20044;-68
2021/08/09 05:50:40;;;;;;;13.77;2.55;;;;;;;;;;4972159;28;21118;-68
2021/08/09 05:53:06;;;;;;;7.57;1.40;;;;;;;;;;4968164;28;20050;-68
2021/08/09 05:55:32;;;;;;;12.30;2.75;;;;;;;;;;4970586;28;20027;-69
2021/08/09 05:57:58;;;;;;;12.85;2.03;;;;;;;;;;4973089;28;20030;-69
2021/08/09 06:00:24;;;;;;;9.80;1.95;;;;;;;;;;4970486;28;20027;-69
2021/08/09 06:02:50;;;;;;;10.30;1.90;;;;;;;;;;4969750;28;20484;-69
2021/08/09 06:05:16;;;;;;;10.90;2.88;;;;;;;;;;4973773;28;20121;-69
2021/08/09 06:07:42;;;;;;;14.18;1.85;;;;;;;;;;4977769;28;20438;-68
2021/08/09 06:10:09;;;;;;;16.30;2.60;;;;;;;;;;4975462;28;20487;-68
2021/08/09 06:12:36;;;;;;;15.32;2.20;;;;;;;;;;4972668;28;20038;-68
2021/08/09 06:15:02;;;;;;;10.35;2.08;;;;;;;;;;4968577;28;20034;-68
2021/08/09 06:17:28;;;;;;;10.45;2.25;;;;;;;;;;4973159;28;20081;-68
2021/08/09 06:19:54;;;;;;;12.32;2.50;;;;;;;;;;4976475;28;20023;-68
2021/08/09 06:22:20;;;;;;;12.13;2.03;;;;;;;;;;4979624;28;20073;-68
2021/08/09 06:24:46;;;;;;;6.82;2.45;;;;;;;;;;4970739;28;20035;-68
2021/08/09 06:27:12;;;;;;;12.05;2.22;;;;;;;;;;4975340;28;20022;-68
2021/08/09 06:29:38;;;;;;;8.00;1.75;;;;;;;;;;4973967;28;20499;-68
2021/08/09 06:32:04;;;;;;;11.88;1.60;;;;;;;;;;4967243;28;20066;-68
2021/08/09 06:34:30;;;;;;;8.60;1.92;;;;;;;;;;4969889;28;20042;-69
2021/08/09 06:36:56;;;;;;;15.95;2.30;;;;;;;;;;4967809;28;20034;-68
2021/08/09 06:39:22;;;;;;;6.47;1.58;;;;;;;;;;4969680;28;20065;-68
2021/08/09 06:41:48;;;;;;;12.48;1.77;;;;;;;;;;4969078;28;20535;-69
2021/08/09 06:44:14;;;;;;;6.55;1.55;;;;;;;;;;4974599;28;20394;-69
2021/08/09 06:46:40;;;;;;;9.85;1.45;;;;;;;;;;4968855;28;20042;-69
2021/08/09 06:49:06;;;;;;;10.93;2.10;;;;;;;;;;4967828;28;20073;-68
2021/08/09 06:51:32;;;;;;;5.30;1.17;;;;;;;;;;4974759;28;20031;-68
2021/08/09 06:53:58;;;;;;;9.45;1.90;;;;;;;;;;4967429;28;20039;-68
2021/08/09 06:56:24;;;;;;;9.45;1.27;;;;;;;;;;4970846;28;20031;-69
2021/08/09 06:58:50;;;;;;;7.95;1.83;;;;;;;;;;4971607;28;20030;-69
2021/08/09 07:01:16;;;;;;;8.88;1.85;;;;;;;;;;4964258;28;20031;-69
2021/08/09 07:03:45;;;;;;;9.48;1.88;;;;;;;;;;4959624;28;20428;-69
2021/08/09 07:06:18;;;;;;;5.47;1.20;;;;;;;;;;4982465;28;20066;-69
2021/08/09 07:08:44;;;;;;;7.65;1.13;;;;;;;;;;4970944;28;20037;-69
2021/08/09 07:11:10;;;;;;;6.00;1.17;;;;;;;;;;4971705;28;20039;-69
2021/08/09 07:13:36;;;;;;;6.03;1.13;;;;;;;;;;4986065;28;20073;-69
2021/08/09 07:16:01;;;;;;;5.47;1.70;;;;;;;;;;4988604;28;20023;-69
2021/08/09 07:18:27;;;;;;;9.52;1.10;;;;;;;;;;4970624;28;20488;-69
2021/08/09 07:20:53;;;;;;;7.30;1.35;;;;;;;;;;4965216;28;20030;-69
2021/08/09 07:23:19;;;;;;;6.60;1.42;;;;;;;;;;4979980;28;20019;-69
2021/08/09 07:25:45;;;;;;;6.45;1.10;;;;;;;;;;4975794;28;20230;-69
2021/08/09 07:28:11;;;;;;;11.50;1.98;;;;;;;;;;4970008;28;20035;-68
2021/08/09 07:30:37;;;;;;;6.57;1.50;;;;;;;;;;4978212;28;20078;-68
2021/08/09 07:33:03;;;;;;;5.32;0.98;;;;;;;;;;4966445;28;20030;-68
2021/08/09 07:35:29;;;;;;;7.10;1.67;;;;;;;;;;4971797;28;20030;-69
2021/08/09 07:37:55;;;;;;;4.72;1.08;;;;;;;;;;4972377;28;20027;-69
2021/08/09 07:40:21;;;;;;;7.13;0.90;;;;;;;;;;4973139;28;20101;-68
2021/08/09 07:42:47;;;;;;;5.57;1.20;;;;;;;;;;4970075;28;20097;-68
2021/08/09 07:45:13;;;;;;;6.65;1.35;;;;;;;;;;4968182;28;20105;-68
2021/08/09 07:47:39;;;;;;;8.43;1.50;;;;;;;;;;4971999;28;20034;-68
2021/08/09 07:50:05;;;;;;;7.68;1.35;;;;;;;;;;4958213;28;20031;-68
2021/08/09 07:52:31;;;;;;;7.93;1.35;;;;;;;;;;4983116;28;20078;-68
2021/08/09 07:54:57;;;;;;;8.95;1.10;;;;;;;;;;4995878;28;20053;-68
2021/08/09 07:57:23;;;;;;;5.28;0.98;;;;;;;;;;4993368;28;20014;-70
2021/08/09 07:59:50;;;;;;;9.65;2.15;;;;;;;;;;4993951;28;20029;-69
2021/08/09 08:02:15;;;;;;;9.70;1.90;;;;;;;;;;4991940;28;20772;-69
2021/08/09 08:04:44;;;;;;;6.22;1.77;;;;;;;;;;4990760;28;20019;-69
2021/08/09 08:07:10;;;;;;;11.15;2.30;;;;;;;;;;4993036;28;20068;-69
2021/08/09 08:09:36;;;;;;;10.23;1.73;;;;;;;;;;4992200;28;20435;-70
2021/08/09 08:12:02;;;;;;;7.10;1.30;;;;;;;;;;4992374;28;20663;-70
2021/08/09 08:14:29;;;;;;;10.27;1.58;;;;;;;;;;4987849;28;20487;-70
2021/08/09 08:16:55;;;;;;;10.88;1.85;;;;;;;;;;4992153;28;20147;-70
2021/08/09 08:19:21;;;;;;;8.07;1.30;;;;;;;;;;4982096;28;20053;-70
2021/08/09 08:21:48;;;;;;;5.00;1.15;;;;;;;;;;4991073;28;20085;-70
2021/08/09 08:24:14;;;;;;;9.02;1.55;;;;;;;;;;4986439;28;20045;-70
2021/08/09 08:26:40;;;;;;;3.85;1.48;;;;;;;;;;4984883;28;20113;-70
2021/08/09 08:29:06;;;;;;;4.57;1.33;;;;;;;;;;4979730;28;20039;-70
2021/08/09 08:31:32;;;;;;;10.75;1.58;;;;;;;;;;4976073;28;20065;-70
2021/08/09 08:33:58;;;;;;;5.05;1.00;;;;;;;;;;4979674;28;20540;-70
2021/08/09 08:36:24;;;;;;;9.10;2.00;;;;;;;;;;4978818;28;20069;-70
2021/08/09 08:38:50;;;;;;;7.03;1.50;;;;;;;;;;4978044;28;20403;-70
2021/08/09 08:41:17;;;;;;;4.05;1.27;;;;;;;;;;4985254;28;20027;-70
2021/08/09 08:43:44;;;;;;;7.47;1.20;;;;;;;;;;4990299;28;20026;-70
2021/08/09 08:46:10;;;;;;;3.05;0.93;;;;;;;;;;4986591;28;20027;-70
2021/08/09 08:48:37;;;;;;;4.07;1.15;;;;;;;;;;4988459;28;20034;-70
2021/08/09 08:51:04;;;;;;;4.47;1.38;;;;;;;;;;4993682;28;20046;-68
2021/08/09 08:53:31;;;;;;;9.30;1.73;;;;;;;;;;4991087;28;20034;-68
2021/08/09 08:55:58;;;;;;;6.88;1.35;;;;;;;;;;4980302;28;20038;-68
2021/08/09 08:58:24;;;;;;;6.43;1.15;;;;;;;;;;4974619;28;20033;-68
2021/08/09 09:00:50;;;;;;;3.75;1.27;;;;;;;;;;4973943;28;20615;-68
2021/08/09 09:03:21;;;;;;;6.38;1.60;;;;;;;;;;4972465;28;20031;-68
2021/08/09 09:06:01;;;;;;;6.20;1.63;;;;;;;;;;4976648;28;20029;-68
2021/08/09 09:08:39;;;;;;;3.53;1.23;;;;;;;;;;4974607;28;20786;-68
2021/08/09 09:11:05;;;;;;;4.43;1.00;;;;;;;;;;4970862;28;20219;-67
2021/08/09 09:13:31;;;;;;;5.18;1.52;;;;;;;;;;4973950;28;20035;-68
2021/08/09 09:15:59;;;;;;;4.60;1.25;;;;;;;;;;4973947;28;20035;-68
2021/08/09 09:18:29;;;;;;;5.75;2.00;;;;;;;;;;4972603;28;20058;-68
2021/08/09 09:20:55;;;;;;;5.93;1.65;;;;;;;;;;4974236;28;20027;-68
2021/08/09 09:23:23;;;;;;;8.20;1.13;;;;;;;;;;4977639;28;20027;-68
2021/08/09 09:25:49;;;;;;;4.50;1.05;;;;;;;;;;4977081;28;20033;-68
2021/08/09 09:28:28;;;;;;;11.20;2.05;;;;;;;;;;4975621;28;20022;-68
2021/08/09 09:30:57;;;;;;;9.13;1.33;;;;;;;;;;4977036;28;20022;-69
2021/08/09 09:33:23;;;;;;;7.03;1.33;;;;;;;;;;4981413;28;20030;-68
2021/08/09 09:35:50;;;;;;;3.25;1.08;;;;;;;;;;4988389;28;20521;-68
2021/08/09 09:38:16;;;;;;;8.93;1.63;;;;;;;;;;4988761;28;20047;-68
2021/08/09 09:40:43;;;;;;;6.05;2.00;;;;;;;;;;4996713;28;20022;-69
2021/08/09 09:43:21;;;;;;;5.63;1.48;;;;;;;;;;5015790;28;20026;-68
2021/08/09 09:45:54;;;;;;;4.60;0.60;;;;;;;;;;5007661;28;20032;-68
2021/08/09 09:48:34;;;;;;;5.40;1.13;;;;;;;;;;4992435;28;20452;-68
2021/08/09 09:51:12;;;;;;;2.72;0.95;;;;;;;;;;4982414;28;20023;-69
2021/08/09 09:53:38;;;;;;;2.30;0.80;;;;;;;;;;4995990;28;20041;-69
2021/08/09 09:56:04;;;;;;;2.75;1.20;;;;;;;;;;4996311;28;20027;-69
2021/08/09 09:58:31;;;;;;;5.25;0.93;;;;;;;;;;4989375;28;20101;-69
2021/08/09 10:00:59;;;;;;;4.88;0.82;;;;;;;;;;4992926;28;20793;-69
2021/08/09 10:03:25;;;;;;;4.93;0.88;;;;;;;;;;4992270;28;20034;-69
2021/08/09 10:05:52;;;;;;;7.03;1.33;;;;;;;;;;4995873;28;20030;-69
2021/08/09 10:08:20;;;;;;;2.60;1.10;;;;;;;;;;4995160;28;20026;-69
2021/08/09 10:10:47;;;;;;;5.75;1.13;;;;;;;;;;4995218;28;20110;-69
2021/08/09 10:13:13;;;;;;;3.15;1.17;;;;;;;;;;4983509;28;20113;-69
2021/08/09 10:15:39;;;;;;;1.85;1.00;;;;;;;;;;4992353;28;20037;-69
2021/08/09 10:18:05;;;;;;;4.05;1.10;;;;;;;;;;4984023;28;20042;-69
2021/08/09 10:20:32;;;;;;;3.78;1.48;;;;;;;;;;4996406;28;20029;-69
2021/08/09 10:23:02;;;;;;;6.68;1.20;;;;;;;;;;4994183;28;20691;-69
2021/08/09 10:25:46;;;;;;;5.05;1.02;;;;;;;;;;4997748;28;20030;-70
2021/08/09 10:28:12;;;;;;;10.13;1.77;;;;;;;;;;4991551;28;20023;-69
2021/08/09 10:30:38;;;;;;;3.40;1.27;;;;;;;;;;4991760;28;20030;-69
2021/08/09 10:33:08;;;;;;;3.55;0.90;;;;;;;;;;4990122;28;20487;-69
2021/08/09 10:35:34;;;;;;;;;;;;;;;;;;4993298;28;20576;-69
2021/08/09 10:38:17;;;;;;;4.65;1.42;;;;;;;;;;4989612;28;19925;-69
2021/08/09 10:40:45;;;;;;;3.38;1.10;;;;;;;;;;4990065;28;20026;-69
2021/08/09 10:43:11;;;;;;;3.22;1.00;;;;;;;;;;4995166;28;20145;-69
2021/08/09 10:45:44;;;;;;;3.08;0.98;;;;;;;;;;4985854;28;20030;-69
2021/08/09 10:48:11;;;;;;;7.18;1.20;;;;;;;;;;4986994;28;20042;-71
2021/08/09 10:50:41;;;;;;;3.38;0.70;;;;;;;;;;4977823;28;20027;-69
2021/08/09 10:53:25;;;;;;;3.83;1.00;;;;;;;;;;4978964;28;20070;-69
2021/08/09 10:56:00;;;;;;;2.35;0.90;;;;;;;;;;4981423;28;20030;-69
2021/08/09 10:58:42;;;;;;;5.47;1.02;;;;;;;;;;4977453;28;20504;-69
2021/08/09 11:01:08;;;;;;;5.28;1.25;;;;;;;;;;5001908;28;20030;-69
2021/08/09 11:03:34;;;;;;;3.88;0.95;;;;;;;;;;4984073;28;20030;-69
2021/08/09 11:06:20;;;;;;;5.28;1.42;;;;;;;;;;4995098;28;20486;-69
2021/08/09 11:08:46;;;;;;;5.45;1.13;;;;;;;;;;4986675;28;20041;-69
2021/08/09 11:11:12;;;;;;;3.30;0.80;;;;;;;;;;4986637;28;20019;-69
2021/08/09 11:13:38;;;;;;;5.78;1.35;;;;;;;;;;4985135;28;20034;-69
2021/08/09 11:16:04;;;;;;;3.50;1.08;;;;;;;;;;4992337;28;20075;-69
2021/08/09 11:18:31;;;;;;;5.65;0.93;;;;;;;;;;4979963;28;20915;-69
2021/08/09 11:21:02;;;;;;;3.13;0.60;;;;;;;;;;4977271;28;20045;-69
2021/08/09 11:23:34;;;;;;;5.25;1.20;;;;;;;;;;4979777;28;20092;-69
2021/08/09 11:26:00;;;;;;;3.63;1.17;;;;;;;;;;4988259;28;20380;-69
2021/08/09 11:28:26;;;;;;;3.70;1.20;;;;;;;;;;4980976;28;20030;-69
2021/08/09 11:30:53;;;;;;;2.30;0.95;;;;;;;;;;5010506;28;20478;-69
2021/08/09 11:33:33;;;;;;;3.50;1.27;;;;;;;;;;4993081;28;20021;-69
2021/08/09 11:36:01;;;;;;;3.53;1.08;;;;;;;;;;4985526;28;20077;-69
2021/08/09 11:38:28;;;;;;;5.15;1.35;;;;;;;;;;4985584;28;20479;-69
2021/08/09 11:40:55;;;;;;;3.92;1.02;;;;;;;;;;4998781;28;20077;-69
2021/08/09 11:43:26;;;;;;;4.13;0.52;;;;;;;;;;4993504;28;20109;-69
2021/08/09 11:45:53;;;;;;;2.13;0.93;;;;;;;;;;5001612;28;20034;-69
2021/08/09 11:48:26;;;;;;;5.30;0.70;;;;;;;;;;4998576;28;20588;-69
2021/08/09 11:50:57;;;;;;;3.90;0.70;;;;;;;;;;4985150;28;20026;-69
2021/08/09 11:53:23;;;;;;;3.63;0.60;;;;;;;;;;4998638;28;20061;-69
2021/08/09 11:55:49;;;;;;;3.35;0.70;;;;;;;;;;4993219;28;20118;-69
2021/08/09 11:58:36;;;;;;;2.03;0.82;;;;;;;;;;5001394;28;20229;-69
2021/08/09 12:01:02;;;;;;;1.75;0.85;;;;;;;;;;4995449;28;20030;-70
2021/08/09 12:03:28;;;;;;;1.48;0.50;;;;;;;;;;4994230;28;20587;-70
2021/08/09 12:05:56;;;;;;;1.80;0.88;;;;;;;;;;4995593;28;20023;-69
2021/08/09 12:08:23;;;;;;;2.42;0.93;;;;;;;;;;4997580;28;20014;-70
2021/08/09 12:10:49;;;;;;;2.50;0.90;;;;;;;;;;5005463;28;20092;-70
2021/08/09 12:13:26;;;;;;;2.20;0.80;;;;;;;;;;4996891;28;20113;-69
2021/08/09 12:16:07;;;;;;;2.00;1.08;;;;;;;;;;4999452;28;20022;-69
2021/08/09 12:18:33;;;;;;;3.20;0.82;;;;;;;;;;4992499;28;20022;-69
2021/08/09 12:21:08;;;;;;;2.92;1.13;;;;;;;;;;4998621;28;20054;-69
2021/08/09 12:23:34;;;;;;;4.25;1.13;;;;;;;;;;4994924;28;20101;-69
2021/08/09 12:26:00;;;;;;;3.30;0.98;;;;;;;;;;4986499;28;20093;-69
2021/08/09 12:28:30;;;;;;;6.25;1.45;;;;;;;;;;4988132;28;20034;-69
2021/08/09 12:30:56;;;;;;;5.20;1.15;;;;;;;;;;4994125;28;20033;-69
2021/08/09 12:33:22;;;;;;;3.45;0.70;;;;;;;;;;4996950;28;20023;-69
2021/08/09 12:35:48;;;;;;;4.32;1.02;;;;;;;;;;4998185;28;20030;-70
2021/08/09 12:38:15;;;;;;;3.92;1.00;;;;;;;;;;4993541;28;20029;-69
2021/08/09 12:40:45;;;;;;;4.95;1.23;;;;;;;;;;5000957;28;20022;-69
2021/08/09 12:43:12;;;;;;;3.72;1.17;;;;;;;;;;4997569;28;20100;-69
2021/08/09 12:45:39;;;;;;;4.57;1.13;;;;;;;;;;5004822;28;20404;-69
2021/08/09 12:48:05;;;;;;;5.28;1.42;;;;;;;;;;4987254;28;20050;-69
2021/08/09 12:50:32;;;;;;;2.13;0.88;;;;;;;;;;4990534;28;20434;-69
2021/08/09 12:52:58;;;;;;;3.65;1.40;;;;;;;;;;4992590;28;20030;-68
2021/08/09 12:55:24;;;;;;;4.60;1.20;;;;;;;;;;4978429;28;20034;-70
2021/08/09 12:57:53;;;;;;;3.92;1.20;;;;;;;;;;4983958;28;20041;-71
2021/08/09 13:00:21;;;;;;;2.33;1.10;;;;;;;;;;4989673;28;20026;-69
2021/08/09 13:02:47;;;;;;;6.00;1.42;;;;;;;;;;4989779;28;20030;-70
2021/08/09 13:05:13;;;;;;;4.20;1.15;;;;;;;;;;4997762;28;20431;-70
2021/08/09 13:07:39;;;;;;;5.65;1.83;;;;;;;;;;4987118;28;20027;-70
2021/08/09 13:10:06;;;;;;;6.40;1.77;;;;;;;;;;4991026;28;20041;-70
2021/08/09 13:12:32;;;;;;;5.38;1.40;;;;;;;;;;4981795;28;20023;-70
2021/08/09 13:14:58;;;;;;;2.40;1.48;;;;;;;;;;4995923;28;20027;-70
2021/08/09 13:17:24;;;;;;;5.07;1.52;;;;;;;;;;4986497;28;20502;-70
2021/08/09 13:19:50;;;;;;;5.25;1.63;;;;;;;;;;4980625;28;20161;-70
2021/08/09 13:22:16;;;;;;;3.95;1.63;;;;;;;;;;4992078;28;20077;-70
2021/08/09 13:24:43;;;;;;;7.22;1.98;;;;;;;;;;5001414;28;20022;-70
2021/08/09 13:27:09;;;;;;;4.28;1.10;;;;;;;;;;4983885;28;20041;-70
2021/08/09 13:29:35;;;;;;;6.53;1.70;;;;;;;;;;4981735;28;20058;-70
2021/08/09 13:32:01;;;;;;;3.95;1.10;;;;;;;;;;4993681;28;20476;-70
2021/08/09 13:34:27;;;;;;;8.57;1.52;;;;;;;;;;5006152;28;20038;-70
2021/08/09 13:36:53;;;;;;;5.05;1.77;;;;;;;;;;5000342;28;20023;-70
2021/08/09 13:39:19;;;;;;;10.23;2.00;;;;;;;;;;4985222;28;20039;-70
2021/08/09 13:41:45;;;;;;;4.13;1.27;;;;;;;;;;4976667;28;20037;-70
2021/08/09 13:44:11;;;;;;;2.95;1.13;;;;;;;;;;4993805;28;20031;-69
2021/08/09 13:46:37;;;;;;;5.00;1.25;;;;;;;;;;4984662;28;20089;-70
2021/08/09 13:49:03;;;;;;;6.82;1.70;;;;;;;;;;4978380;28;20034;-70
2021/08/09 13:51:30;;;;;;;4.53;1.50;;;;;;;;;;4986773;28;20129;-70
2021/08/09 13:53:58;;;;;;;3.97;1.55;;;;;;;;;;4985193;28;20121;-70
2021/08/09 13:56:24;;;;;;;3.47;1.15;;;;;;;;;;4978704;28;20427;-70
2021/08/09 13:58:50;;;;;;;5.18;1.45;;;;;;;;;;4986768;28;21085;-70
2021/08/09 14:01:16;;;;;;;5.38;1.20;;;;;;;;;;4988388;28;20411;-70
2021/08/09 14:03:43;;;;;;;7.18;2.33;;;;;;;;;;4994074;28;20026;-70
2021/08/09 14:06:09;;;;;;;7.05;1.65;;;;;;;;;;4992390;28;20113;-70
2021/08/09 14:08:36;;;;;;;4.10;1.50;;;;;;;;;;4987440;28;20111;-69
2021/08/09 14:11:02;;;;;;;8.63;2.65;;;;;;;;;;4988264;28;20038;-70
2021/08/09 14:13:28;;;;;;;3.92;1.38;;;;;;;;;;4980813;28;20029;-70
2021/08/09 14:15:56;;;;;;;4.70;1.83;;;;;;;;;;4985237;28;20384;-69
2021/08/09 14:18:22;;;;;;;4.88;1.75;;;;;;;;;;4978121;28;20022;-70
2021/08/09 14:20:48;;;;;;;4.88;1.55;;;;;;;;;;4998564;28;20010;-70
2021/08/09 14:23:14;;;;;;;6.68;1.70;;;;;;;;;;4989746;28;20031;-70
2021/08/09 14:25:40;;;;;;;5.20;2.00;;;;;;;;;;4981249;28;20038;-70
2021/08/09 14:28:06;;;;;;;10.77;2.05;;;;;;;;;;4979020;28;20109;-70
2021/08/09 14:30:32;;;;;;;5.60;1.33;;;;;;;;;;4991075;28;20118;-70
2021/08/09 14:32:59;;;;;;;6.13;2.40;;;;;;;;;;4988460;28;20117;-70
2021/08/09 14:35:25;;;;;;;5.22;1.95;;;;;;;;;;4985682;28;20031;-69
2021/08/09 14:37:51;;;;;;;7.40;2.15;;;;;;;;;;4999485;28;20105;-70
2021/08/09 14:40:17;;;;;;;4.80;2.20;;;;;;;;;;4995178;28;20029;-70